sensor_id;sensor_type;location;lat;lon;timestamp;P1;durP1;ratioP1;P2;durP2;ratioP2
13660;SDS011;6903;49.480;11.102;2023-01-10T00:01:06;2.23;;;1.57;;
13660;SDS011;6903;49.480;11.102;2023-01-10T00:03:31;5.60;;;1.73;;
13660;SDS011;6903;49.480;11.102;2023-01-10T00:05:56;2.73;;;1.50;;
13660;SDS011;6903;49.480;11.102;2023-01-10T00:08:22;1.90;;;1.70;;
13660;SDS011;6903;49.480;11.102;2023-01-10T00:10:47;3.00;;;1.60;;
13660;SDS011;6903;49.480;11.102;2023-01-10T00:13:13;2.77;;;1.47;;
13660;SDS011;6903;49.480;11.102;2023-01-10T00:15:48;2.03;;;1.63;;
13660;SDS011;6903;49.480;11.102;2023-01-10T00:18:13;3.23;;;2.23;;
13660;SDS011;6903;49.480;11.102;2023-01-10T00:20:38;2.53;;;2.13;;
13660;SDS011;6903;49.480;11.102;2023-01-10T00:23:03;3.40;;;2.10;;
13660;SDS011;6903;49.480;11.102;2023-01-10T00:25:29;2.90;;;1.80;;
13660;SDS011;6903;49.480;11.102;2023-01-10T00:27:54;4.03;;;1.73;;
13660;SDS011;6903;49.480;11.102;2023-01-10T00:30:38;2.20;;;1.80;;
13660;SDS011;6903;49.480;11.102;2023-01-10T00:33:03;3.63;;;2.00;;
13660;SDS011;6903;49.480;11.102;2023-01-10T00:35:29;2.93;;;2.13;;
13660;SDS011;6903;49.480;11.102;2023-01-10T00:37:54;3.53;;;2.13;;
13660;SDS011;6903;49.480;11.102;2023-01-10T00:40:25;3.47;;;2.03;;
13660;SDS011;6903;49.480;11.102;2023-01-10T00:42:50;2.40;;;2.10;;
13660;SDS011;6903;49.480;11.102;2023-01-10T00:45:34;2.80;;;2.20;;
13660;SDS011;6903;49.480;11.102;2023-01-10T00:48:00;4.37;;;1.93;;
13660;SDS011;6903;49.480;11.102;2023-01-10T00:50:25;2.60;;;2.27;;
13660;SDS011;6903;49.480;11.102;2023-01-10T00:52:50;4.43;;;2.40;;
13660;SDS011;6903;49.480;11.102;2023-01-10T00:55:15;5.90;;;2.40;;
13660;SDS011;6903;49.480;11.102;2023-01-10T00:57:40;4.53;;;2.27;;
13660;SDS011;6903;49.480;11.102;2023-01-10T01:00:06;3.70;;;2.43;;
13660;SDS011;6903;49.480;11.102;2023-01-10T01:02:33;4.37;;;2.20;;
13660;SDS011;6903;49.480;11.102;2023-01-10T01:04:58;3.63;;;2.40;;
13660;SDS011;6903;49.480;11.102;2023-01-10T01:07:23;2.77;;;2.10;;
13660;SDS011;6903;49.480;11.102;2023-01-10T01:09:48;2.67;;;2.43;;
13660;SDS011;6903;49.480;11.102;2023-01-10T01:12:32;3.73;;;2.40;;
13660;SDS011;6903;49.480;11.102;2023-01-10T01:14:58;4.53;;;2.50;;
13660;SDS011;6903;49.480;11.102;2023-01-10T01:17:23;4.53;;;2.80;;
13660;SDS011;6903;49.480;11.102;2023-01-10T01:19:48;3.53;;;2.00;;
13660;SDS011;6903;49.480;11.102;2023-01-10T01:22:13;3.60;;;2.57;;
13660;SDS011;6903;49.480;11.102;2023-01-10T01:24:39;4.77;;;2.63;;
13660;SDS011;6903;49.480;11.102;2023-01-10T01:27:05;3.33;;;2.40;;
13660;SDS011;6903;49.480;11.102;2023-01-10T01:29:30;5.23;;;2.63;;
13660;SDS011;6903;49.480;11.102;2023-01-10T01:31:55;3.57;;;2.60;;
13660;SDS011;6903;49.480;11.102;2023-01-10T01:34:21;3.67;;;2.80;;
13660;SDS011;6903;49.480;11.102;2023-01-10T01:36:46;2.83;;;2.50;;
13660;SDS011;6903;49.480;11.102;2023-01-10T01:39:11;3.07;;;2.77;;
13660;SDS011;6903;49.480;11.102;2023-01-10T01:41:36;4.40;;;2.93;;
13660;SDS011;6903;49.480;11.102;2023-01-10T01:44:20;3.00;;;2.60;;
13660;SDS011;6903;49.480;11.102;2023-01-10T01:46:47;2.57;;;2.33;;
13660;SDS011;6903;49.480;11.102;2023-01-10T01:49:15;2.83;;;2.40;;
13660;SDS011;6903;49.480;11.102;2023-01-10T01:51:42;3.30;;;2.60;;
13660;SDS011;6903;49.480;11.102;2023-01-10T01:54:09;2.63;;;2.43;;
13660;SDS011;6903;49.480;11.102;2023-01-10T01:56:49;2.73;;;2.30;;
13660;SDS011;6903;49.480;11.102;2023-01-10T01:59:19;2.67;;;2.20;;
13660;SDS011;6903;49.480;11.102;2023-01-10T02:01:47;2.53;;;2.20;;
13660;SDS011;6903;49.480;11.102;2023-01-10T02:04:23;2.30;;;2.10;;
13660;SDS011;6903;49.480;11.102;2023-01-10T02:06:51;3.13;;;2.27;;
13660;SDS011;6903;49.480;11.102;2023-01-10T02:09:19;2.40;;;2.20;;
13660;SDS011;6903;49.480;11.102;2023-01-10T02:11:46;3.13;;;2.37;;
13660;SDS011;6903;49.480;11.102;2023-01-10T02:14:12;3.00;;;2.13;;
13660;SDS011;6903;49.480;11.102;2023-01-10T02:16:38;3.47;;;2.13;;
13660;SDS011;6903;49.480;11.102;2023-01-10T02:19:04;2.20;;;2.00;;
13660;SDS011;6903;49.480;11.102;2023-01-10T02:27:21;2.73;;;2.20;;
13660;SDS011;6903;49.480;11.102;2023-01-10T02:32:38;2.57;;;2.03;;
13660;SDS011;6903;49.480;11.102;2023-01-10T02:45:05;2.65;;;1.95;;
13660;SDS011;6903;49.480;11.102;2023-01-10T02:47:42;2.10;;;1.90;;
13660;SDS011;6903;49.480;11.102;2023-01-10T02:52:48;2.37;;;2.17;;
13660;SDS011;6903;49.480;11.102;2023-01-10T02:55:13;3.20;;;2.03;;
13660;SDS011;6903;49.480;11.102;2023-01-10T03:00:26;2.40;;;2.20;;
13660;SDS011;6903;49.480;11.102;2023-01-10T03:05:40;3.17;;;2.50;;
13660;SDS011;6903;49.480;11.102;2023-01-10T03:08:30;3.13;;;2.67;;
13660;SDS011;6903;49.480;11.102;2023-01-10T03:13:27;3.50;;;3.08;;
13660;SDS011;6903;49.480;11.102;2023-01-10T03:15:53;3.20;;;2.90;;
13660;SDS011;6903;49.480;11.102;2023-01-10T03:18:21;3.87;;;3.10;;
13660;SDS011;6903;49.480;11.102;2023-01-10T03:20:48;3.00;;;2.70;;
13660;SDS011;6903;49.480;11.102;2023-01-10T03:23:15;4.33;;;3.53;;
13660;SDS011;6903;49.480;11.102;2023-01-10T03:25:41;3.20;;;2.90;;
13660;SDS011;6903;49.480;11.102;2023-01-10T03:28:18;4.10;;;3.70;;
13660;SDS011;6903;49.480;11.102;2023-01-10T03:30:53;4.37;;;3.97;;
13660;SDS011;6903;49.480;11.102;2023-01-10T03:33:22;4.00;;;3.60;;
13660;SDS011;6903;49.480;11.102;2023-01-10T03:38:20;4.33;;;3.47;;
13660;SDS011;6903;49.480;11.102;2023-01-10T03:41:02;4.40;;;3.67;;
13660;SDS011;6903;49.480;11.102;2023-01-10T03:43:33;4.93;;;3.90;;
13660;SDS011;6903;49.480;11.102;2023-01-10T03:46:22;8.50;;;4.13;;
13660;SDS011;6903;49.480;11.102;2023-01-10T03:48:49;4.30;;;3.90;;
13660;SDS011;6903;49.480;11.102;2023-01-10T03:51:15;6.73;;;4.30;;
13660;SDS011;6903;49.480;11.102;2023-01-10T03:53:41;4.77;;;4.33;;
13660;SDS011;6903;49.480;11.102;2023-01-10T03:56:06;5.17;;;4.03;;
13660;SDS011;6903;49.480;11.102;2023-01-10T03:58:32;4.63;;;4.13;;
13660;SDS011;6903;49.480;11.102;2023-01-10T04:00:57;5.10;;;3.87;;
13660;SDS011;6903;49.480;11.102;2023-01-10T04:03:22;5.27;;;3.80;;
13660;SDS011;6903;49.480;11.102;2023-01-10T04:05:48;4.80;;;4.03;;
13660;SDS011;6903;49.480;11.102;2023-01-10T04:08:13;4.90;;;3.60;;
13660;SDS011;6903;49.480;11.102;2023-01-10T04:10:38;4.33;;;3.70;;
13660;SDS011;6903;49.480;11.102;2023-01-10T04:13:03;5.10;;;4.30;;
13660;SDS011;6903;49.480;11.102;2023-01-10T04:15:29;4.53;;;4.00;;
13660;SDS011;6903;49.480;11.102;2023-01-10T04:17:54;4.80;;;3.90;;
13660;SDS011;6903;49.480;11.102;2023-01-10T04:20:20;4.00;;;3.37;;
13660;SDS011;6903;49.480;11.102;2023-01-10T04:22:45;4.57;;;3.83;;
13660;SDS011;6903;49.480;11.102;2023-01-10T04:25:10;3.50;;;3.20;;
13660;SDS011;6903;49.480;11.102;2023-01-10T04:27:36;6.03;;;4.03;;
13660;SDS011;6903;49.480;11.102;2023-01-10T04:30:01;4.90;;;4.40;;
13660;SDS011;6903;49.480;11.102;2023-01-10T04:32:26;4.80;;;4.20;;
13660;SDS011;6903;49.480;11.102;2023-01-10T04:34:51;6.20;;;4.20;;
13660;SDS011;6903;49.480;11.102;2023-01-10T04:37:17;6.80;;;4.50;;
13660;SDS011;6903;49.480;11.102;2023-01-10T04:39:43;5.33;;;4.30;;
13660;SDS011;6903;49.480;11.102;2023-01-10T04:42:08;7.37;;;4.90;;
13660;SDS011;6903;49.480;11.102;2023-01-10T04:44:33;5.27;;;4.63;;
13660;SDS011;6903;49.480;11.102;2023-01-10T04:46:58;7.13;;;4.80;;
13660;SDS011;6903;49.480;11.102;2023-01-10T04:49:23;6.00;;;4.97;;
13660;SDS011;6903;49.480;11.102;2023-01-10T04:51:49;7.07;;;5.30;;
13660;SDS011;6903;49.480;11.102;2023-01-10T04:54:14;5.50;;;4.70;;
13660;SDS011;6903;49.480;11.102;2023-01-10T04:56:43;5.70;;;4.90;;
13660;SDS011;6903;49.480;11.102;2023-01-10T04:59:08;6.57;;;4.73;;
13660;SDS011;6903;49.480;11.102;2023-01-10T05:01:33;5.40;;;4.60;;
13660;SDS011;6903;49.480;11.102;2023-01-10T05:04:01;6.33;;;5.03;;
13660;SDS011;6903;49.480;11.102;2023-01-10T05:06:27;5.10;;;4.60;;
13660;SDS011;6903;49.480;11.102;2023-01-10T05:08:52;5.67;;;4.87;;
13660;SDS011;6903;49.480;11.102;2023-01-10T05:11:17;5.80;;;4.70;;
13660;SDS011;6903;49.480;11.102;2023-01-10T05:13:42;4.70;;;4.30;;
13660;SDS011;6903;49.480;11.102;2023-01-10T05:16:08;6.50;;;4.43;;
13660;SDS011;6903;49.480;11.102;2023-01-10T05:18:33;7.40;;;5.33;;
13660;SDS011;6903;49.480;11.102;2023-01-10T05:20:59;5.47;;;4.80;;
13660;SDS011;6903;49.480;11.102;2023-01-10T05:23:24;6.13;;;4.30;;
13660;SDS011;6903;49.480;11.102;2023-01-10T05:25:49;5.77;;;5.00;;
13660;SDS011;6903;49.480;11.102;2023-01-10T05:28:14;6.23;;;4.83;;
13660;SDS011;6903;49.480;11.102;2023-01-10T05:30:39;9.10;;;5.37;;
13660;SDS011;6903;49.480;11.102;2023-01-10T05:33:05;7.53;;;5.33;;
13660;SDS011;6903;49.480;11.102;2023-01-10T05:35:30;7.93;;;5.90;;
13660;SDS011;6903;49.480;11.102;2023-01-10T05:37:55;7.03;;;5.10;;
13660;SDS011;6903;49.480;11.102;2023-01-10T05:40:20;7.00;;;5.20;;
13660;SDS011;6903;49.480;11.102;2023-01-10T05:42:46;6.47;;;4.97;;
13660;SDS011;6903;49.480;11.102;2023-01-10T05:45:11;8.30;;;5.13;;
13660;SDS011;6903;49.480;11.102;2023-01-10T05:47:36;6.20;;;4.80;;
13660;SDS011;6903;49.480;11.102;2023-01-10T05:50:01;6.87;;;4.87;;
13660;SDS011;6903;49.480;11.102;2023-01-10T05:52:26;8.33;;;4.80;;
13660;SDS011;6903;49.480;11.102;2023-01-10T05:54:52;8.50;;;4.87;;
13660;SDS011;6903;49.480;11.102;2023-01-10T05:57:17;6.77;;;5.00;;
13660;SDS011;6903;49.480;11.102;2023-01-10T05:59:43;5.43;;;4.37;;
13660;SDS011;6903;49.480;11.102;2023-01-10T06:02:08;5.90;;;4.80;;
13660;SDS011;6903;49.480;11.102;2023-01-10T06:04:33;7.27;;;4.80;;
13660;SDS011;6903;49.480;11.102;2023-01-10T06:06:58;8.20;;;4.87;;
13660;SDS011;6903;49.480;11.102;2023-01-10T06:09:23;6.27;;;4.70;;
13660;SDS011;6903;49.480;11.102;2023-01-10T06:11:49;6.73;;;4.67;;
13660;SDS011;6903;49.480;11.102;2023-01-10T06:14:14;7.63;;;4.37;;
13660;SDS011;6903;49.480;11.102;2023-01-10T06:16:43;5.70;;;3.77;;
13660;SDS011;6903;49.480;11.102;2023-01-10T06:19:08;5.73;;;4.73;;
13660;SDS011;6903;49.480;11.102;2023-01-10T06:21:33;7.53;;;4.50;;
13660;SDS011;6903;49.480;11.102;2023-01-10T06:23:58;6.10;;;4.50;;
13660;SDS011;6903;49.480;11.102;2023-01-10T06:26:24;6.30;;;4.30;;
13660;SDS011;6903;49.480;11.102;2023-01-10T06:28:49;6.13;;;4.30;;
13660;SDS011;6903;49.480;11.102;2023-01-10T06:31:14;6.23;;;4.10;;
13660;SDS011;6903;49.480;11.102;2023-01-10T06:33:39;8.37;;;5.03;;
13660;SDS011;6903;49.480;11.102;2023-01-10T06:36:05;6.57;;;4.33;;
13660;SDS011;6903;49.480;11.102;2023-01-10T06:38:30;8.20;;;4.23;;
13660;SDS011;6903;49.480;11.102;2023-01-10T06:40:56;6.27;;;4.27;;
13660;SDS011;6903;49.480;11.102;2023-01-10T06:43:21;5.80;;;4.27;;
13660;SDS011;6903;49.480;11.102;2023-01-10T06:45:46;7.03;;;4.53;;
13660;SDS011;6903;49.480;11.102;2023-01-10T06:48:11;6.57;;;4.37;;
13660;SDS011;6903;49.480;11.102;2023-01-10T06:50:36;6.20;;;3.83;;
13660;SDS011;6903;49.480;11.102;2023-01-10T06:53:02;7.33;;;4.20;;
13660;SDS011;6903;49.480;11.102;2023-01-10T06:55:28;6.53;;;4.00;;
13660;SDS011;6903;49.480;11.102;2023-01-10T06:57:54;6.73;;;3.97;;
13660;SDS011;6903;49.480;11.102;2023-01-10T07:00:20;4.03;;;3.63;;
13660;SDS011;6903;49.480;11.102;2023-01-10T07:02:45;5.47;;;4.03;;
13660;SDS011;6903;49.480;11.102;2023-01-10T07:05:10;6.27;;;3.47;;
13660;SDS011;6903;49.480;11.102;2023-01-10T07:07:35;6.70;;;3.50;;
13660;SDS011;6903;49.480;11.102;2023-01-10T07:10:01;5.97;;;3.77;;
13660;SDS011;6903;49.480;11.102;2023-01-10T07:12:27;5.73;;;3.70;;
13660;SDS011;6903;49.480;11.102;2023-01-10T07:14:52;5.50;;;3.93;;
13660;SDS011;6903;49.480;11.102;2023-01-10T07:17:17;6.40;;;4.10;;
13660;SDS011;6903;49.480;11.102;2023-01-10T07:19:43;6.47;;;4.20;;
13660;SDS011;6903;49.480;11.102;2023-01-10T07:22:08;6.47;;;3.87;;
13660;SDS011;6903;49.480;11.102;2023-01-10T07:24:33;5.57;;;3.50;;
13660;SDS011;6903;49.480;11.102;2023-01-10T07:26:58;5.83;;;3.83;;
13660;SDS011;6903;49.480;11.102;2023-01-10T07:29:23;6.37;;;3.80;;
13660;SDS011;6903;49.480;11.102;2023-01-10T07:31:48;7.83;;;3.60;;
13660;SDS011;6903;49.480;11.102;2023-01-10T07:34:14;6.53;;;3.43;;
13660;SDS011;6903;49.480;11.102;2023-01-10T07:36:39;5.87;;;3.47;;
13660;SDS011;6903;49.480;11.102;2023-01-10T07:39:04;5.53;;;3.40;;
13660;SDS011;6903;49.480;11.102;2023-01-10T07:41:29;5.90;;;3.50;;
13660;SDS011;6903;49.480;11.102;2023-01-10T07:43:54;6.53;;;3.23;;
13660;SDS011;6903;49.480;11.102;2023-01-10T07:46:19;4.50;;;3.30;;
13660;SDS011;6903;49.480;11.102;2023-01-10T07:48:45;7.00;;;3.07;;
13660;SDS011;6903;49.480;11.102;2023-01-10T07:51:11;6.80;;;2.63;;
13660;SDS011;6903;49.480;11.102;2023-01-10T07:53:36;3.90;;;2.83;;
13660;SDS011;6903;49.480;11.102;2023-01-10T07:56:02;4.20;;;2.43;;
13660;SDS011;6903;49.480;11.102;2023-01-10T07:58:27;8.67;;;3.20;;
13660;SDS011;6903;49.480;11.102;2023-01-10T08:00:56;7.83;;;3.00;;
13660;SDS011;6903;49.480;11.102;2023-01-10T08:03:21;5.53;;;3.20;;
13660;SDS011;6903;49.480;11.102;2023-01-10T08:05:48;4.97;;;2.80;;
13660;SDS011;6903;49.480;11.102;2023-01-10T08:08:13;4.03;;;2.87;;
13660;SDS011;6903;49.480;11.102;2023-01-10T08:10:40;6.40;;;2.97;;
13660;SDS011;6903;49.480;11.102;2023-01-10T08:13:05;5.57;;;3.10;;
13660;SDS011;6903;49.480;11.102;2023-01-10T08:15:31;4.70;;;2.77;;
13660;SDS011;6903;49.480;11.102;2023-01-10T08:17:59;6.63;;;2.90;;
13660;SDS011;6903;49.480;11.102;2023-01-10T08:20:25;5.87;;;2.77;;
13660;SDS011;6903;49.480;11.102;2023-01-10T08:22:50;4.87;;;2.80;;
13660;SDS011;6903;49.480;11.102;2023-01-10T08:25:15;6.10;;;2.70;;
13660;SDS011;6903;49.480;11.102;2023-01-10T08:27:40;3.93;;;2.90;;
13660;SDS011;6903;49.480;11.102;2023-01-10T08:30:06;8.60;;;2.63;;
13660;SDS011;6903;49.480;11.102;2023-01-10T08:32:31;6.03;;;2.90;;
13660;SDS011;6903;49.480;11.102;2023-01-10T08:34:57;3.30;;;2.60;;
13660;SDS011;6903;49.480;11.102;2023-01-10T08:37:22;5.17;;;2.93;;
13660;SDS011;6903;49.480;11.102;2023-01-10T08:39:47;4.47;;;2.77;;
13660;SDS011;6903;49.480;11.102;2023-01-10T08:42:12;5.67;;;3.00;;
13660;SDS011;6903;49.480;11.102;2023-01-10T08:44:38;5.93;;;3.03;;
13660;SDS011;6903;49.480;11.102;2023-01-10T08:47:03;5.60;;;2.80;;
13660;SDS011;6903;49.480;11.102;2023-01-10T08:49:28;5.30;;;2.60;;
13660;SDS011;6903;49.480;11.102;2023-01-10T08:51:53;5.13;;;3.03;;
13660;SDS011;6903;49.480;11.102;2023-01-10T08:54:19;4.63;;;2.83;;
13660;SDS011;6903;49.480;11.102;2023-01-10T08:56:44;6.33;;;3.10;;
13660;SDS011;6903;49.480;11.102;2023-01-10T08:59:09;8.10;;;3.17;;
13660;SDS011;6903;49.480;11.102;2023-01-10T09:01:34;7.70;;;3.27;;
13660;SDS011;6903;49.480;11.102;2023-01-10T09:03:59;5.30;;;2.97;;
13660;SDS011;6903;49.480;11.102;2023-01-10T09:06:25;5.93;;;2.80;;
13660;SDS011;6903;49.480;11.102;2023-01-10T09:08:50;7.17;;;3.00;;
13660;SDS011;6903;49.480;11.102;2023-01-10T09:11:15;6.47;;;3.10;;
13660;SDS011;6903;49.480;11.102;2023-01-10T09:13:41;6.20;;;3.13;;
13660;SDS011;6903;49.480;11.102;2023-01-10T09:16:06;5.03;;;3.57;;
13660;SDS011;6903;49.480;11.102;2023-01-10T09:18:32;5.87;;;3.47;;
13660;SDS011;6903;49.480;11.102;2023-01-10T09:20:58;6.93;;;3.60;;
13660;SDS011;6903;49.480;11.102;2023-01-10T09:23:23;7.97;;;3.50;;
13660;SDS011;6903;49.480;11.102;2023-01-10T09:25:50;5.63;;;3.10;;
13660;SDS011;6903;49.480;11.102;2023-01-10T09:28:16;5.80;;;3.17;;
13660;SDS011;6903;49.480;11.102;2023-01-10T09:30:41;6.60;;;3.07;;
13660;SDS011;6903;49.480;11.102;2023-01-10T09:33:06;4.77;;;3.30;;
13660;SDS011;6903;49.480;11.102;2023-01-10T09:35:33;8.80;;;3.10;;
13660;SDS011;6903;49.480;11.102;2023-01-10T09:37:59;6.43;;;3.40;;
13660;SDS011;6903;49.480;11.102;2023-01-10T09:45:27;7.18;;;3.25;;
13660;SDS011;6903;49.480;11.102;2023-01-10T09:47:58;7.57;;;3.10;;
13660;SDS011;6903;49.480;11.102;2023-01-10T09:50:34;5.27;;;2.87;;
13660;SDS011;6903;49.480;11.102;2023-01-10T09:53:03;4.97;;;2.70;;
13660;SDS011;6903;49.480;11.102;2023-01-10T09:55:34;5.73;;;3.17;;
13660;SDS011;6903;49.480;11.102;2023-01-10T09:58:00;4.40;;;2.90;;
13660;SDS011;6903;49.480;11.102;2023-01-10T10:00:35;4.77;;;2.87;;
13660;SDS011;6903;49.480;11.102;2023-01-10T10:03:01;6.67;;;2.67;;
13660;SDS011;6903;49.480;11.102;2023-01-10T10:05:29;9.73;;;3.27;;
13660;SDS011;6903;49.480;11.102;2023-01-10T10:07:55;5.13;;;3.17;;
13660;SDS011;6903;49.480;11.102;2023-01-10T10:10:25;6.47;;;2.80;;
13660;SDS011;6903;49.480;11.102;2023-01-10T10:13:08;3.23;;;2.80;;
13660;SDS011;6903;49.480;11.102;2023-01-10T10:18:09;7.13;;;2.87;;
13660;SDS011;6903;49.480;11.102;2023-01-10T10:23:27;5.47;;;2.80;;
13660;SDS011;6903;49.480;11.102;2023-01-10T10:25:59;6.37;;;2.93;;
13660;SDS011;6903;49.480;11.102;2023-01-10T10:28:31;5.47;;;2.87;;
13660;SDS011;6903;49.480;11.102;2023-01-10T10:31:08;4.33;;;2.67;;
13660;SDS011;6903;49.480;11.102;2023-01-10T10:36:04;8.52;;;2.92;;
13660;SDS011;6903;49.480;11.102;2023-01-10T10:38:34;4.03;;;2.60;;
13660;SDS011;6903;49.480;11.102;2023-01-10T10:41:01;6.03;;;2.40;;
13660;SDS011;6903;49.480;11.102;2023-01-10T10:43:31;6.20;;;2.60;;
13660;SDS011;6903;49.480;11.102;2023-01-10T10:46:00;7.10;;;2.57;;
13660;SDS011;6903;49.480;11.102;2023-01-10T10:48:28;5.23;;;2.40;;
13660;SDS011;6903;49.480;11.102;2023-01-10T10:51:07;7.47;;;2.60;;
13660;SDS011;6903;49.480;11.102;2023-01-10T10:53:34;8.67;;;3.03;;
13660;SDS011;6903;49.480;11.102;2023-01-10T10:56:03;5.97;;;2.33;;
13660;SDS011;6903;49.480;11.102;2023-01-10T10:58:29;7.17;;;2.50;;
13660;SDS011;6903;49.480;11.102;2023-01-10T11:00:56;6.60;;;2.40;;
13660;SDS011;6903;49.480;11.102;2023-01-10T11:05:49;4.93;;;2.57;;
13660;SDS011;6903;49.480;11.102;2023-01-10T11:08:16;3.73;;;2.43;;
13660;SDS011;6903;49.480;11.102;2023-01-10T11:10:42;6.83;;;2.50;;
13660;SDS011;6903;49.480;11.102;2023-01-10T11:13:13;4.27;;;2.60;;
13660;SDS011;6903;49.480;11.102;2023-01-10T11:15:41;6.40;;;2.80;;
13660;SDS011;6903;49.480;11.102;2023-01-10T11:18:11;4.93;;;2.63;;
13660;SDS011;6903;49.480;11.102;2023-01-10T11:20:44;4.73;;;2.30;;
13660;SDS011;6903;49.480;11.102;2023-01-10T11:23:10;4.73;;;2.60;;
13660;SDS011;6903;49.480;11.102;2023-01-10T11:25:35;6.57;;;2.60;;
13660;SDS011;6903;49.480;11.102;2023-01-10T11:28:01;4.80;;;2.20;;
13660;SDS011;6903;49.480;11.102;2023-01-10T11:30:27;3.87;;;2.10;;
13660;SDS011;6903;49.480;11.102;2023-01-10T11:33:01;6.97;;;2.93;;
13660;SDS011;6903;49.480;11.102;2023-01-10T11:35:34;6.63;;;2.20;;
13660;SDS011;6903;49.480;11.102;2023-01-10T11:40:27;4.65;;;2.30;;
13660;SDS011;6903;49.480;11.102;2023-01-10T11:42:53;6.50;;;2.13;;
13660;SDS011;6903;49.480;11.102;2023-01-10T11:45:22;5.63;;;1.93;;
13660;SDS011;6903;49.480;11.102;2023-01-10T11:47:55;4.10;;;2.30;;
13660;SDS011;6903;49.480;11.102;2023-01-10T11:50:29;4.97;;;2.00;;
13660;SDS011;6903;49.480;11.102;2023-01-10T11:52:55;3.77;;;1.90;;
13660;SDS011;6903;49.480;11.102;2023-01-10T11:55:22;4.97;;;2.03;;
13660;SDS011;6903;49.480;11.102;2023-01-10T11:57:58;3.93;;;2.37;;
13660;SDS011;6903;49.480;11.102;2023-01-10T12:00:29;6.40;;;2.47;;
13660;SDS011;6903;49.480;11.102;2023-01-10T12:02:55;7.90;;;2.20;;
13660;SDS011;6903;49.480;11.102;2023-01-10T12:05:21;7.57;;;2.57;;
13660;SDS011;6903;49.480;11.102;2023-01-10T12:07:54;4.40;;;2.63;;
13660;SDS011;6903;49.480;11.102;2023-01-10T12:10:22;6.37;;;2.43;;
13660;SDS011;6903;49.480;11.102;2023-01-10T12:12:52;7.63;;;2.40;;
13660;SDS011;6903;49.480;11.102;2023-01-10T12:15:22;6.83;;;2.23;;
13660;SDS011;6903;49.480;11.102;2023-01-10T12:17:48;6.50;;;2.37;;
13660;SDS011;6903;49.480;11.102;2023-01-10T12:20:14;7.63;;;2.50;;
13660;SDS011;6903;49.480;11.102;2023-01-10T12:22:41;6.60;;;2.10;;
13660;SDS011;6903;49.480;11.102;2023-01-10T12:25:48;6.77;;;2.10;;
13660;SDS011;6903;49.480;11.102;2023-01-10T12:27:55;7.67;;;2.10;;
13660;SDS011;6903;49.480;11.102;2023-01-10T12:30:31;5.73;;;2.47;;
13660;SDS011;6903;49.480;11.102;2023-01-10T12:32:58;4.63;;;1.90;;
13660;SDS011;6903;49.480;11.102;2023-01-10T12:35:26;7.00;;;2.37;;
13660;SDS011;6903;49.480;11.102;2023-01-10T12:37:59;5.93;;;1.97;;
13660;SDS011;6903;49.480;11.102;2023-01-10T12:40:29;7.47;;;2.60;;
13660;SDS011;6903;49.480;11.102;2023-01-10T12:43:04;4.03;;;2.00;;
13660;SDS011;6903;49.480;11.102;2023-01-10T12:45:51;7.50;;;2.37;;
13660;SDS011;6903;49.480;11.102;2023-01-10T12:48:28;6.27;;;2.10;;
13660;SDS011;6903;49.480;11.102;2023-01-10T12:51:04;5.50;;;2.20;;
13660;SDS011;6903;49.480;11.102;2023-01-10T12:53:32;7.83;;;2.77;;
13660;SDS011;6903;49.480;11.102;2023-01-10T12:56:00;8.13;;;2.73;;
13660;SDS011;6903;49.480;11.102;2023-01-10T12:58:39;5.37;;;2.13;;
13660;SDS011;6903;49.480;11.102;2023-01-10T13:01:06;6.10;;;2.50;;
13660;SDS011;6903;49.480;11.102;2023-01-10T13:03:33;5.17;;;2.53;;
13660;SDS011;6903;49.480;11.102;2023-01-10T13:05:59;8.60;;;2.33;;
13660;SDS011;6903;49.480;11.102;2023-01-10T13:08:26;5.63;;;1.97;;
13660;SDS011;6903;49.480;11.102;2023-01-10T13:10:52;6.90;;;2.03;;
13660;SDS011;6903;49.480;11.102;2023-01-10T13:15:49;7.38;;;2.13;;
13660;SDS011;6903;49.480;11.102;2023-01-10T13:18:24;8.43;;;2.33;;
13660;SDS011;6903;49.480;11.102;2023-01-10T13:21:00;7.33;;;2.23;;
13660;SDS011;6903;49.480;11.102;2023-01-10T13:23:27;6.37;;;2.30;;
13660;SDS011;6903;49.480;11.102;2023-01-10T13:25:55;4.30;;;1.97;;
13660;SDS011;6903;49.480;11.102;2023-01-10T13:28:27;7.70;;;2.30;;
13660;SDS011;6903;49.480;11.102;2023-01-10T13:30:54;6.03;;;2.27;;
13660;SDS011;6903;49.480;11.102;2023-01-10T13:33:33;6.33;;;2.30;;
13660;SDS011;6903;49.480;11.102;2023-01-10T13:36:10;5.97;;;1.93;;
13660;SDS011;6903;49.480;11.102;2023-01-10T13:38:44;3.97;;;2.13;;
13660;SDS011;6903;49.480;11.102;2023-01-10T13:41:11;7.70;;;2.03;;
13660;SDS011;6903;49.480;11.102;2023-01-10T13:44:10;5.17;;;2.00;;
13660;SDS011;6903;49.480;11.102;2023-01-10T13:46:36;6.67;;;2.13;;
13660;SDS011;6903;49.480;11.102;2023-01-10T13:51:30;7.73;;;2.50;;
13660;SDS011;6903;49.480;11.102;2023-01-10T13:53:59;6.10;;;2.50;;
13660;SDS011;6903;49.480;11.102;2023-01-10T13:58:52;7.30;;;2.13;;
13660;SDS011;6903;49.480;11.102;2023-01-10T14:01:36;4.37;;;1.80;;
13660;SDS011;6903;49.480;11.102;2023-01-10T14:05:06;3.47;;;1.90;;
13660;SDS011;6903;49.480;11.102;2023-01-10T14:07:20;6.50;;;2.30;;
13660;SDS011;6903;49.480;11.102;2023-01-10T14:09:46;5.47;;;2.03;;
13660;SDS011;6903;49.480;11.102;2023-01-10T14:12:18;7.37;;;2.20;;
13660;SDS011;6903;49.480;11.102;2023-01-10T14:14:53;6.20;;;2.23;;
13660;SDS011;6903;49.480;11.102;2023-01-10T14:17:20;6.03;;;2.10;;
13660;SDS011;6903;49.480;11.102;2023-01-10T14:19:47;5.30;;;2.17;;
13660;SDS011;6903;49.480;11.102;2023-01-10T14:22:26;6.10;;;2.07;;
13660;SDS011;6903;49.480;11.102;2023-01-10T14:24:54;5.13;;;2.10;;
13660;SDS011;6903;49.480;11.102;2023-01-10T14:27:20;6.80;;;2.27;;
13660;SDS011;6903;49.480;11.102;2023-01-10T14:29:47;8.67;;;2.07;;
13660;SDS011;6903;49.480;11.102;2023-01-10T14:34:50;3.47;;;1.77;;
13660;SDS011;6903;49.480;11.102;2023-01-10T14:37:26;5.03;;;2.07;;
13660;SDS011;6903;49.480;11.102;2023-01-10T14:39:53;6.13;;;2.00;;
13660;SDS011;6903;49.480;11.102;2023-01-10T14:42:20;7.07;;;1.90;;
13660;SDS011;6903;49.480;11.102;2023-01-10T14:44:58;8.93;;;2.37;;
13660;SDS011;6903;49.480;11.102;2023-01-10T14:47:30;8.23;;;1.80;;
13660;SDS011;6903;49.480;11.102;2023-01-10T14:49:55;8.77;;;2.23;;
13660;SDS011;6903;49.480;11.102;2023-01-10T14:52:27;6.30;;;2.07;;
13660;SDS011;6903;49.480;11.102;2023-01-10T14:55:14;4.60;;;1.93;;
13660;SDS011;6903;49.480;11.102;2023-01-10T14:57:38;6.67;;;2.57;;
13660;SDS011;6903;49.480;11.102;2023-01-10T15:00:10;5.37;;;2.10;;
13660;SDS011;6903;49.480;11.102;2023-01-10T15:02:36;5.23;;;2.37;;
13660;SDS011;6903;49.480;11.102;2023-01-10T15:05:05;6.77;;;2.00;;
13660;SDS011;6903;49.480;11.102;2023-01-10T15:07:35;6.97;;;2.00;;
13660;SDS011;6903;49.480;11.102;2023-01-10T15:10:00;8.27;;;2.50;;
13660;SDS011;6903;49.480;11.102;2023-01-10T15:12:28;7.63;;;2.70;;
13660;SDS011;6903;49.480;11.102;2023-01-10T15:15:15;7.80;;;2.60;;
13660;SDS011;6903;49.480;11.102;2023-01-10T15:17:39;6.67;;;2.47;;
13660;SDS011;6903;49.480;11.102;2023-01-10T15:20:05;7.17;;;2.47;;
13660;SDS011;6903;49.480;11.102;2023-01-10T15:22:31;8.87;;;2.57;;
13660;SDS011;6903;49.480;11.102;2023-01-10T15:27:43;8.97;;;2.90;;
13660;SDS011;6903;49.480;11.102;2023-01-10T15:30:09;7.57;;;2.33;;
13660;SDS011;6903;49.480;11.102;2023-01-10T15:32:35;6.43;;;2.30;;
13660;SDS011;6903;49.480;11.102;2023-01-10T15:35:03;8.67;;;2.77;;
13660;SDS011;6903;49.480;11.102;2023-01-10T15:37:33;9.03;;;2.63;;
13660;SDS011;6903;49.480;11.102;2023-01-10T15:40:01;7.23;;;2.93;;
13660;SDS011;6903;49.480;11.102;2023-01-10T15:42:27;6.77;;;3.43;;
13660;SDS011;6903;49.480;11.102;2023-01-10T15:44:52;7.53;;;2.50;;
13660;SDS011;6903;49.480;11.102;2023-01-10T15:47:38;5.60;;;2.50;;
13660;SDS011;6903;49.480;11.102;2023-01-10T15:50:22;6.47;;;2.53;;
13660;SDS011;6903;49.480;11.102;2023-01-10T15:52:51;11.37;;;2.93;;
13660;SDS011;6903;49.480;11.102;2023-01-10T15:55:37;6.93;;;2.63;;